createdAt,value
2023-01-19T00:05:52.661Z,-3.71
2023-01-19T00:20:54.088Z,-3.70
2023-01-19T00:35:56.086Z,-3.77
2023-01-19T00:50:57.492Z,-3.68
2023-01-19T01:05:58.869Z,-3.62
2023-01-19T01:21:00.279Z,-3.64
2023-01-19T01:36:01.727Z,-3.61
2023-01-19T01:51:21.892Z,-3.91
2023-01-19T02:06:23.296Z,-3.93
2023-01-19T02:21:24.678Z,-3.89
2023-01-19T02:36:26.251Z,-3.67
2023-01-19T02:51:27.939Z,-3.67
2023-01-19T03:06:29.313Z,-3.52
2023-01-19T03:21:30.754Z,-3.37
2023-01-19T03:36:32.182Z,-3.77
2023-01-19T03:51:33.607Z,-3.94
2023-01-19T04:06:34.995Z,-3.87
2023-01-19T04:21:36.392Z,-4.06
2023-01-19T04:36:37.842Z,-4.00
2023-01-19T04:51:39.228Z,-4.27
2023-01-19T05:06:40.644Z,-3.89
2023-01-19T05:21:42.063Z,-3.70
2023-01-19T05:36:43.535Z,-3.76
2023-01-19T05:51:45.510Z,-3.91
2023-01-19T06:06:46.925Z,-4.08
2023-01-19T06:21:49.798Z,-4.13
2023-01-19T06:36:51.305Z,-4.28
2023-01-19T06:51:52.697Z,-4.62
2023-01-19T07:06:54.094Z,-4.76
2023-01-19T07:21:55.541Z,-4.80
2023-01-19T07:36:56.952Z,-4.37
2023-01-19T07:51:58.364Z,-3.80
2023-01-19T08:06:59.792Z,-3.79
2023-01-19T08:22:01.304Z,-3.45
2023-01-19T08:37:02.726Z,-3.15
2023-01-19T08:52:04.189Z,-2.22
2023-01-19T09:22:07.884Z,-0.76
2023-01-19T09:37:09.300Z,-1.23
2023-01-19T09:52:10.715Z,-1.14
2023-01-19T10:07:12.160Z,-0.99
2023-01-19T10:22:13.569Z,-1.72
2023-01-19T10:37:14.962Z,-0.95
2023-01-19T10:52:18.819Z,-0.92
2023-01-19T11:07:20.461Z,-0.85
2023-01-19T11:22:22.807Z,0.51
2023-01-19T11:37:24.194Z,0.34
2023-01-19T11:52:25.607Z,-0.52
2023-01-19T12:07:27.159Z,-0.59
2023-01-19T12:22:29.967Z,0.00
2023-01-19T12:37:31.427Z,-0.67
2023-01-19T12:52:35.776Z,-1.09
2023-01-19T13:07:37.255Z,-1.21
2023-01-19T13:22:38.662Z,-1.08
2023-01-19T13:37:40.456Z,-1.04
2023-01-19T13:52:41.895Z,-1.25
2023-01-19T14:07:43.412Z,-1.30
2023-01-19T14:22:44.882Z,-1.36
2023-01-19T14:37:47.273Z,-1.35
2023-01-19T14:52:48.888Z,-1.27
2023-01-19T15:07:52.050Z,-1.35
2023-01-19T15:22:53.453Z,-1.55
2023-01-19T15:37:54.868Z,-1.78
2023-01-19T15:52:56.318Z,-2.11
2023-01-19T16:07:57.807Z,-2.53
2023-01-19T16:23:13.907Z,-2.62
2023-01-19T16:38:16.082Z,-2.75
2023-01-19T16:53:17.477Z,-2.91
2023-01-19T17:08:19.307Z,-3.03
2023-01-19T17:23:20.694Z,-2.98
2023-01-19T17:38:22.090Z,-3.04
2023-01-19T17:53:23.474Z,-2.91
2023-01-19T18:08:24.898Z,-2.71
2023-01-19T18:23:26.316Z,-2.73
2023-01-19T18:38:27.744Z,-2.68
2023-01-19T18:53:29.123Z,-2.58
2023-01-19T19:08:30.594Z,-2.57
2023-01-19T19:23:32.229Z,-2.59
2023-01-19T19:38:33.682Z,-2.55
2023-01-19T19:53:35.849Z,-2.52
2023-01-19T20:08:37.305Z,-2.58
2023-01-19T20:23:38.741Z,-2.52
2023-01-19T20:38:40.152Z,-2.51
2023-01-19T20:53:41.575Z,-2.55
2023-01-19T21:08:43.239Z,-2.63
2023-01-19T21:23:46.729Z,-2.68
2023-01-19T21:38:48.467Z,-2.60
2023-01-19T21:53:50.323Z,-2.55
2023-01-19T22:08:51.833Z,-2.47
2023-01-19T22:23:53.249Z,-2.48
2023-01-19T22:38:54.649Z,-2.35
2023-01-19T22:53:56.048Z,-2.30
2023-01-19T23:08:58.488Z,-2.26
2023-01-19T23:23:59.919Z,-2.29
2023-01-19T23:39:01.346Z,-2.22
2023-01-19T23:54:02.736Z,-2.22
